createdAt,value
2022-10-18T00:01:07.987Z,14.74
2022-10-18T00:03:36.030Z,14.72
2022-10-18T00:06:05.155Z,14.67
2022-10-18T00:08:33.206Z,14.67
2022-10-18T00:11:00.961Z,14.62
2022-10-18T00:13:28.888Z,14.63
2022-10-18T00:15:59.878Z,14.65
2022-10-18T00:18:28.201Z,14.63
2022-10-18T00:20:59.834Z,14.65
2022-10-18T00:23:29.150Z,14.62
2022-10-18T00:26:10.382Z,14.59
2022-10-18T00:28:39.146Z,14.55
2022-10-18T00:31:19.306Z,14.52
2022-10-18T00:33:50.753Z,14.49
2022-10-18T00:36:19.550Z,14.47
2022-10-18T00:38:48.061Z,14.49
2022-10-18T00:41:19.889Z,14.49
2022-10-18T00:43:59.112Z,14.45
2022-10-18T00:46:38.390Z,14.40
2022-10-18T00:49:20.186Z,14.36
2022-10-18T00:51:56.791Z,14.35
2022-10-18T00:54:26.446Z,14.29
2022-10-18T00:56:54.368Z,14.28
2022-10-18T00:59:23.366Z,14.26
2022-10-18T01:01:51.467Z,14.25
2022-10-18T01:04:20.878Z,14.29
2022-10-18T01:07:00.723Z,14.29
2022-10-18T01:10:07.932Z,14.33
2022-10-18T01:13:23.408Z,14.38
2022-10-18T01:16:16.327Z,14.38
2022-10-18T01:18:54.794Z,14.39
2022-10-18T01:21:28.587Z,14.36
2022-10-18T01:24:05.622Z,14.42
2022-10-18T01:26:58.030Z,14.32
2022-10-18T01:29:37.400Z,14.30
2022-10-18T01:32:20.203Z,14.26
2022-10-18T01:34:51.285Z,14.26
2022-10-18T01:37:21.888Z,14.24
2022-10-18T01:39:54.250Z,14.19
2022-10-18T01:42:22.137Z,14.17
2022-10-18T01:44:52.726Z,14.17
2022-10-18T01:47:21.577Z,14.08
2022-10-18T01:49:49.464Z,14.07
2022-10-18T01:52:17.576Z,14.08
2022-10-18T01:54:49.944Z,14.02
2022-10-18T01:57:26.678Z,14.01
2022-10-18T02:00:02.915Z,14.01
2022-10-18T02:02:45.184Z,13.97
2022-10-18T02:05:21.470Z,13.97
2022-10-18T02:08:23.986Z,13.98
2022-10-18T02:11:12.844Z,14.00
2022-10-18T02:13:49.986Z,14.00
2022-10-18T02:16:22.870Z,14.02
2022-10-18T02:18:58.842Z,14.02
2022-10-18T02:21:29.457Z,14.01
2022-10-18T02:23:59.114Z,14.00
2022-10-18T02:26:27.090Z,14.00
2022-10-18T02:28:55.128Z,13.95
2022-10-18T02:31:29.891Z,13.93
2022-10-18T02:34:12.938Z,13.91
2022-10-18T02:36:56.622Z,13.88
2022-10-18T02:39:34.040Z,13.83
2022-10-18T02:42:06.578Z,13.81
2022-10-18T02:44:35.452Z,13.81
2022-10-18T02:47:04.654Z,13.83
2022-10-18T02:49:32.364Z,13.80
2022-10-18T02:52:00.169Z,13.80
2022-10-18T02:54:28.034Z,13.83
2022-10-18T02:56:55.824Z,13.83
2022-10-18T02:59:23.570Z,13.80
2022-10-18T03:01:51.391Z,13.76
2022-10-18T03:04:19.274Z,13.74
2022-10-18T03:06:47.060Z,13.71
2022-10-18T03:09:14.841Z,13.67
2022-10-18T03:11:42.577Z,13.66
2022-10-18T03:14:10.433Z,13.63
2022-10-18T03:16:38.227Z,13.64
2022-10-18T03:19:06.024Z,13.64
2022-10-18T03:21:33.768Z,13.60
2022-10-18T03:24:02.612Z,13.52
2022-10-18T03:26:30.366Z,13.49
2022-10-18T03:28:58.359Z,13.46
2022-10-18T03:31:26.287Z,13.45
2022-10-18T03:33:54.124Z,13.45
2022-10-18T03:36:21.971Z,13.45
2022-10-18T03:38:49.749Z,13.45
2022-10-18T03:41:17.494Z,13.49
2022-10-18T03:43:45.267Z,13.47
2022-10-18T03:46:13.408Z,13.50
2022-10-18T03:48:41.357Z,13.50
2022-10-18T03:51:09.185Z,13.53
2022-10-18T03:53:37.044Z,13.52
2022-10-18T03:56:05.131Z,13.52
2022-10-18T04:01:01.772Z,13.50
2022-10-18T04:03:29.542Z,13.46
2022-10-18T04:05:57.331Z,13.43
2022-10-18T04:08:25.280Z,13.36
2022-10-18T04:10:53.332Z,13.32
2022-10-18T04:13:21.139Z,13.25
2022-10-18T04:15:48.887Z,13.23
2022-10-18T04:18:16.869Z,13.18
2022-10-18T04:20:44.839Z,13.12
2022-10-18T04:23:12.616Z,13.07
2022-10-18T04:25:40.516Z,13.02
2022-10-18T04:28:08.322Z,12.95
2022-10-18T04:30:36.087Z,12.95
2022-10-18T04:33:03.855Z,12.91
2022-10-18T04:35:31.617Z,12.88
2022-10-18T04:37:59.492Z,12.83
2022-10-18T04:40:27.249Z,12.77
2022-10-18T04:42:55.591Z,12.70
2022-10-18T04:45:23.362Z,12.68
2022-10-18T04:47:51.256Z,12.63
2022-10-18T04:50:19.206Z,12.64
2022-10-18T04:52:47.269Z,12.67
2022-10-18T04:55:15.142Z,12.63
2022-10-18T04:57:42.928Z,12.55
2022-10-18T05:00:17.822Z,12.43
2022-10-18T05:02:48.655Z,12.39
2022-10-18T05:05:16.691Z,12.29
2022-10-18T05:07:44.467Z,12.26
2022-10-18T05:10:12.334Z,12.18
2022-10-18T05:12:40.154Z,12.14
2022-10-18T05:15:08.269Z,12.01
2022-10-18T05:17:36.352Z,11.91
2022-10-18T05:20:04.559Z,11.91
2022-10-18T05:22:32.764Z,11.84
2022-10-18T05:25:00.792Z,11.81
2022-10-18T05:27:31.540Z,11.70
2022-10-18T05:30:01.424Z,11.67
2022-10-18T05:32:32.718Z,11.64
2022-10-18T05:35:00.960Z,11.62
2022-10-18T05:37:28.788Z,11.60
2022-10-18T05:39:56.959Z,11.60
2022-10-18T05:42:25.418Z,11.60
2022-10-18T05:44:53.315Z,11.60
2022-10-18T05:47:21.217Z,11.67
2022-10-18T05:49:49.130Z,11.66
2022-10-18T05:52:20.092Z,11.64
2022-10-18T05:54:47.844Z,11.62
2022-10-18T05:57:15.970Z,11.60
2022-10-18T05:59:44.919Z,11.60
2022-10-18T06:02:13.430Z,11.57
2022-10-18T06:04:41.450Z,11.57
2022-10-18T06:07:12.864Z,11.57
2022-10-18T06:09:41.511Z,11.53
2022-10-18T06:12:09.552Z,11.52
2022-10-18T06:14:38.120Z,11.52
2022-10-18T06:17:05.895Z,11.59
2022-10-18T06:19:33.692Z,11.56
2022-10-18T06:22:01.560Z,11.55
2022-10-18T06:24:29.268Z,11.50
2022-10-18T06:26:57.893Z,11.47
2022-10-18T06:29:25.654Z,11.42
2022-10-18T06:31:53.425Z,11.42
2022-10-18T06:34:21.296Z,11.43
2022-10-18T06:36:49.047Z,11.39
2022-10-18T06:39:16.760Z,11.38
2022-10-18T06:41:44.513Z,11.33
2022-10-18T06:44:21.391Z,11.33
2022-10-18T06:46:49.685Z,11.32
2022-10-18T06:49:19.216Z,11.39
2022-10-18T06:51:47.325Z,11.44
2022-10-18T06:54:18.466Z,11.46
2022-10-18T06:56:47.076Z,11.49
2022-10-18T06:59:15.362Z,11.76
2022-10-18T07:01:43.748Z,12.33
2022-10-18T07:04:11.696Z,12.97
2022-10-18T07:06:39.427Z,13.50
2022-10-18T07:09:07.225Z,13.66
2022-10-18T07:11:35.092Z,13.87
2022-10-18T07:14:04.813Z,14.05
2022-10-18T07:16:33.705Z,14.69
2022-10-18T07:19:01.568Z,15.25
2022-10-18T07:21:29.754Z,15.59
2022-10-18T07:23:57.684Z,15.69
2022-10-18T07:26:29.014Z,15.73
2022-10-18T07:29:05.070Z,15.87
2022-10-18T07:31:33.378Z,16.08
2022-10-18T07:34:03.857Z,16.46
2022-10-18T07:36:31.688Z,16.65
2022-10-18T07:38:59.676Z,16.87
2022-10-18T07:41:27.538Z,16.79
2022-10-18T07:43:55.397Z,16.94
2022-10-18T07:46:23.348Z,17.03
2022-10-18T07:48:51.884Z,16.81
2022-10-18T07:51:20.768Z,16.45
2022-10-18T07:53:49.046Z,16.05
2022-10-18T07:56:21.043Z,15.89
2022-10-18T07:58:51.672Z,15.63
2022-10-18T08:01:21.356Z,15.45
2022-10-18T08:03:49.781Z,15.38
2022-10-18T08:06:19.464Z,15.28
2022-10-18T08:08:47.772Z,15.21
2022-10-18T08:11:18.523Z,15.17
2022-10-18T08:13:46.787Z,15.12
2022-10-18T08:16:17.913Z,15.07
2022-10-18T08:18:45.710Z,15.08
2022-10-18T08:21:15.261Z,15.07
2022-10-18T08:23:43.253Z,15.05
2022-10-18T08:26:15.516Z,15.11
2022-10-18T08:28:53.588Z,15.15
2022-10-18T08:31:26.551Z,15.25
2022-10-18T08:33:57.048Z,15.32
2022-10-18T08:36:25.099Z,15.38
2022-10-18T08:38:53.171Z,15.42
2022-10-18T08:41:43.071Z,15.47
2022-10-18T08:44:21.590Z,15.53
2022-10-18T08:47:02.952Z,15.57
2022-10-18T08:49:38.442Z,15.62
2022-10-18T08:52:24.076Z,15.55
2022-10-18T08:55:29.500Z,15.69
2022-10-18T08:57:58.547Z,15.77
2022-10-18T09:00:30.646Z,15.90
2022-10-18T09:03:33.369Z,15.86
2022-10-18T09:06:09.757Z,15.97
2022-10-18T09:09:03.072Z,16.02
2022-10-18T09:11:49.502Z,16.11
2022-10-18T09:14:33.263Z,16.10
2022-10-18T09:17:16.138Z,16.19
2022-10-18T09:22:52.720Z,16.30
2022-10-18T09:25:25.737Z,16.36
2022-10-18T09:27:56.324Z,16.44
2022-10-18T09:30:36.323Z,16.51
2022-10-18T09:33:19.838Z,16.59
2022-10-18T09:35:57.878Z,16.63
2022-10-18T09:38:31.238Z,16.72
2022-10-18T09:41:08.663Z,16.83
2022-10-18T09:43:59.434Z,16.80
2022-10-18T09:46:37.162Z,16.70
2022-10-18T09:49:20.106Z,16.80
2022-10-18T09:51:50.519Z,16.85
2022-10-18T09:54:43.461Z,16.95
2022-10-18T09:57:34.200Z,16.97
2022-10-18T10:00:05.057Z,17.06
2022-10-18T10:02:33.065Z,17.00
2022-10-18T10:05:01.049Z,17.04
2022-10-18T10:07:35.281Z,17.04
2022-10-18T10:10:23.205Z,17.14
2022-10-18T10:13:22.714Z,17.18
2022-10-18T10:15:56.782Z,17.10
2022-10-18T10:18:34.230Z,17.12
2022-10-18T10:21:05.867Z,17.19
2022-10-18T10:23:39.100Z,17.17
2022-10-18T10:26:30.138Z,17.18
2022-10-18T10:28:58.298Z,17.31
2022-10-18T10:31:32.243Z,17.40
2022-10-18T10:34:15.084Z,17.38
2022-10-18T10:36:51.575Z,17.34
2022-10-18T10:39:21.736Z,17.29
2022-10-18T10:42:01.001Z,17.36
2022-10-18T10:44:36.058Z,17.36
2022-10-18T10:47:04.442Z,17.36
2022-10-18T10:49:55.982Z,17.42
2022-10-18T10:52:28.298Z,17.34
2022-10-18T10:55:11.033Z,17.38
2022-10-18T10:57:47.193Z,17.43
2022-10-18T11:00:33.670Z,17.42
2022-10-18T11:03:29.617Z,17.42
2022-10-18T11:06:00.674Z,17.38
2022-10-18T11:08:38.146Z,17.32
2022-10-18T11:11:27.914Z,17.31
2022-10-18T11:17:08.532Z,17.31
2022-10-18T11:19:39.313Z,17.29
2022-10-18T11:22:14.209Z,17.27
2022-10-18T11:24:42.262Z,17.29
2022-10-18T11:27:21.128Z,17.28
2022-10-18T11:29:56.017Z,17.29
2022-10-18T11:32:44.982Z,17.18
2022-10-18T11:35:29.502Z,17.19
2022-10-18T11:38:12.115Z,17.17
2022-10-18T11:41:04.100Z,17.14
2022-10-18T11:44:04.347Z,17.22
2022-10-18T11:46:53.415Z,17.29
2022-10-18T11:49:28.431Z,17.34
2022-10-18T11:52:22.758Z,17.38
2022-10-18T11:55:12.078Z,17.39
2022-10-18T11:58:04.585Z,17.48
2022-10-18T12:00:39.329Z,17.39
2022-10-18T12:03:16.038Z,17.39
2022-10-18T12:05:47.197Z,17.42
2022-10-18T12:08:19.931Z,17.49
2022-10-18T12:11:05.590Z,17.46
2022-10-18T12:13:47.105Z,17.36
2022-10-18T12:16:17.452Z,17.36
2022-10-18T12:19:00.157Z,17.36
2022-10-18T12:21:31.252Z,17.31
2022-10-18T12:24:16.152Z,17.42
2022-10-18T12:26:45.007Z,17.45
2022-10-18T12:29:21.609Z,17.49
2022-10-18T12:31:51.339Z,17.39
2022-10-18T12:34:25.513Z,17.34
2022-10-18T12:40:05.486Z,17.36
2022-10-18T12:42:40.515Z,17.39
2022-10-18T12:45:27.806Z,17.40
2022-10-18T12:48:00.426Z,17.21
2022-10-18T12:50:30.528Z,17.19
2022-10-18T12:53:10.315Z,17.29
2022-10-18T12:55:40.570Z,17.36
2022-10-18T12:58:14.097Z,17.35
2022-10-18T13:00:41.905Z,17.39
2022-10-18T13:03:18.328Z,17.35
2022-10-18T13:05:54.694Z,17.32
2022-10-18T13:08:29.137Z,17.38
2022-10-18T13:11:12.026Z,17.43
2022-10-18T13:13:58.100Z,17.46
2022-10-18T13:16:37.575Z,17.36
2022-10-18T13:19:37.930Z,17.36
2022-10-18T13:22:30.759Z,17.36
2022-10-18T13:25:15.795Z,17.38
2022-10-18T13:27:47.848Z,17.39
2022-10-18T13:30:27.583Z,17.35
2022-10-18T13:33:40.410Z,17.31
2022-10-18T13:36:22.659Z,17.31
2022-10-18T13:39:02.339Z,17.29
2022-10-18T13:41:58.872Z,17.21
2022-10-18T13:44:40.570Z,17.22
2022-10-18T13:47:09.934Z,17.22
2022-10-18T13:49:44.167Z,17.21
2022-10-18T13:52:34.574Z,17.21
2022-10-18T13:55:43.313Z,17.14
2022-10-18T13:58:23.422Z,17.10
2022-10-18T14:01:07.107Z,17.08
2022-10-18T14:03:58.918Z,16.95
2022-10-18T14:06:40.834Z,16.87
2022-10-18T14:09:32.561Z,16.83
2022-10-18T14:12:41.460Z,16.77
2022-10-18T14:15:15.710Z,16.72
2022-10-18T14:17:49.183Z,16.62
2022-10-18T14:20:49.597Z,16.55
2022-10-18T14:23:36.586Z,16.57
2022-10-18T14:26:31.018Z,16.53
2022-10-18T14:29:16.686Z,16.53
2022-10-18T14:31:54.392Z,16.52
2022-10-18T14:34:22.789Z,16.53
2022-10-18T14:36:51.630Z,16.46
2022-10-18T14:39:23.867Z,16.42
2022-10-18T14:41:56.632Z,16.42
2022-10-18T14:44:32.187Z,16.28
2022-10-18T14:47:21.820Z,16.32
2022-10-18T14:49:50.666Z,16.26
2022-10-18T14:52:26.070Z,16.22
2022-10-18T14:54:58.661Z,16.18
2022-10-18T14:57:37.646Z,16.21
2022-10-18T15:00:08.961Z,16.14
2022-10-18T15:02:38.559Z,16.11
2022-10-18T15:05:17.153Z,16.05
2022-10-18T15:07:45.257Z,16.04
2022-10-18T15:10:25.504Z,16.00
2022-10-18T15:13:10.528Z,15.96
2022-10-18T15:15:40.631Z,15.97
2022-10-18T15:18:15.454Z,15.98
2022-10-18T15:20:43.376Z,15.91
2022-10-18T15:23:26.804Z,15.89
2022-10-18T15:26:04.187Z,15.83
2022-10-18T15:28:36.192Z,15.82
2022-10-18T15:31:05.207Z,15.76
2022-10-18T15:33:34.662Z,15.73
2022-10-18T15:36:20.166Z,15.69
2022-10-18T15:38:50.033Z,15.65
2022-10-18T15:41:38.830Z,15.55
2022-10-18T15:44:16.729Z,15.45
2022-10-18T15:46:44.551Z,15.32
2022-10-18T15:49:51.221Z,15.22
2022-10-18T15:52:39.358Z,15.15
2022-10-18T15:55:29.158Z,15.07
2022-10-18T15:58:33.812Z,15.00
2022-10-18T16:01:04.325Z,14.91
2022-10-18T16:03:36.412Z,14.81
2022-10-18T16:06:08.021Z,14.73
2022-10-18T16:08:40.683Z,14.70
2022-10-18T16:11:15.200Z,14.66
2022-10-18T16:13:43.736Z,14.60
2022-10-18T16:16:18.701Z,14.49
2022-10-18T16:18:47.323Z,14.39
2022-10-18T16:21:18.815Z,14.30
2022-10-18T16:23:47.594Z,14.22
2022-10-18T16:26:16.659Z,14.14
2022-10-18T16:28:45.084Z,14.05
2022-10-18T16:31:17.415Z,13.97
2022-10-18T16:33:46.148Z,13.88
2022-10-18T16:36:19.582Z,13.81
2022-10-18T16:38:48.081Z,13.78
2022-10-18T16:41:16.160Z,13.70
2022-10-18T16:43:46.215Z,13.60
2022-10-18T16:46:18.430Z,13.52
2022-10-18T16:48:47.636Z,13.39
2022-10-18T16:51:15.540Z,13.32
2022-10-18T16:53:43.949Z,13.25
2022-10-18T16:56:20.884Z,13.15
2022-10-18T16:58:49.336Z,13.15
2022-10-18T17:01:19.882Z,13.14
2022-10-18T17:03:48.666Z,13.12
2022-10-18T17:06:17.863Z,13.11
2022-10-18T17:08:46.430Z,13.04
2022-10-18T17:11:15.565Z,12.94
2022-10-18T17:13:44.134Z,12.90
2022-10-18T17:16:30.758Z,12.77
2022-10-18T17:19:00.811Z,12.67
2022-10-18T17:21:30.020Z,12.60
2022-10-18T17:24:06.000Z,12.57
2022-10-18T17:26:34.445Z,12.46
2022-10-18T17:29:05.017Z,12.39
2022-10-18T17:31:33.674Z,12.29
2022-10-18T17:34:02.258Z,12.22
2022-10-18T17:36:32.817Z,12.11
2022-10-18T17:39:01.148Z,12.04
2022-10-18T17:41:29.247Z,12.02
2022-10-18T17:43:57.306Z,11.99
2022-10-18T17:46:25.496Z,11.93
2022-10-18T17:48:54.290Z,11.80
2022-10-18T17:51:22.688Z,11.76
2022-10-18T17:53:50.675Z,11.78
2022-10-18T17:56:18.605Z,11.77
2022-10-18T17:58:49.765Z,11.80
2022-10-18T18:01:23.167Z,11.80
2022-10-18T18:03:56.726Z,11.81
2022-10-18T18:06:30.943Z,11.78
2022-10-18T18:09:01.162Z,11.73
2022-10-18T18:11:29.352Z,11.67
2022-10-18T18:13:57.959Z,11.66
2022-10-18T18:16:29.284Z,11.60
2022-10-18T18:18:58.935Z,11.55
2022-10-18T18:21:27.576Z,11.49
2022-10-18T18:23:56.261Z,11.43
2022-10-18T18:26:24.617Z,11.42
2022-10-18T18:28:52.922Z,11.38
2022-10-18T18:31:23.556Z,11.26
2022-10-18T18:33:53.169Z,11.23
2022-10-18T18:36:21.931Z,11.25
2022-10-18T18:38:56.819Z,11.21
2022-10-18T18:41:27.921Z,11.10
2022-10-18T18:44:01.420Z,10.97
2022-10-18T18:46:33.010Z,11.00
2022-10-18T18:49:01.087Z,10.95
2022-10-18T18:51:28.994Z,10.88
2022-10-18T18:53:56.889Z,10.81
2022-10-18T18:56:26.998Z,10.74
2022-10-18T18:58:56.697Z,10.74
2022-10-18T19:01:27.365Z,10.70
2022-10-18T19:03:59.003Z,10.70
2022-10-18T19:06:30.162Z,10.63
2022-10-18T19:09:03.972Z,10.61
2022-10-18T19:11:34.679Z,10.55
2022-10-18T19:14:03.698Z,10.49
2022-10-18T19:16:34.509Z,10.50
2022-10-18T19:19:04.922Z,10.36
2022-10-18T19:21:35.857Z,10.19
2022-10-18T19:24:04.908Z,10.09
2022-10-18T19:26:44.689Z,10.01
2022-10-18T19:29:16.685Z,9.94
2022-10-18T19:31:45.277Z,9.87
2022-10-18T19:34:14.607Z,9.80
2022-10-18T19:36:45.064Z,9.71
2022-10-18T19:39:18.533Z,9.66
2022-10-18T19:41:49.395Z,9.64
2022-10-18T19:44:19.006Z,9.58
2022-10-18T19:46:48.233Z,9.53
2022-10-18T19:49:17.414Z,9.43
2022-10-18T19:51:45.566Z,9.35
2022-10-18T19:54:14.611Z,9.33
2022-10-18T19:56:43.046Z,9.29
2022-10-18T19:59:12.394Z,9.21
2022-10-18T20:01:41.032Z,9.18
2022-10-18T20:04:10.188Z,9.15
2022-10-18T20:06:39.038Z,9.14
2022-10-18T20:09:08.248Z,9.15
2022-10-18T20:11:36.910Z,9.10
2022-10-18T20:14:09.578Z,9.05
2022-10-18T20:16:37.557Z,8.91
2022-10-18T20:19:07.313Z,8.92
2022-10-18T20:21:36.015Z,8.83
2022-10-18T20:24:05.698Z,8.78
2022-10-18T20:26:35.828Z,8.73
2022-10-18T20:29:04.851Z,8.67
2022-10-18T20:31:37.195Z,8.66
2022-10-18T20:34:11.974Z,8.61
2022-10-18T20:36:40.391Z,8.61
2022-10-18T20:39:09.122Z,8.54
2022-10-18T20:41:40.865Z,8.53
2022-10-18T20:44:13.895Z,8.43
2022-10-18T20:46:42.638Z,8.43
2022-10-18T20:49:16.987Z,8.38
2022-10-18T20:51:45.270Z,8.36
2022-10-18T20:54:13.420Z,8.33
2022-10-18T20:56:41.551Z,8.28
2022-10-18T20:59:10.532Z,8.22
2022-10-18T21:01:39.672Z,8.19
2022-10-18T21:04:09.768Z,8.16
2022-10-18T21:06:43.120Z,8.19
2022-10-18T21:09:14.657Z,8.13
2022-10-18T21:11:44.982Z,8.11
2022-10-18T21:14:17.318Z,8.05
2022-10-18T21:16:45.975Z,7.98
2022-10-18T21:19:27.218Z,7.97
2022-10-18T21:21:57.243Z,7.95
2022-10-18T21:24:25.878Z,7.94
2022-10-18T21:26:54.577Z,7.94
2022-10-18T21:29:24.585Z,7.95
2022-10-18T21:31:59.172Z,7.88
2022-10-18T21:34:27.699Z,7.97
2022-10-18T21:36:56.096Z,7.90
2022-10-18T21:41:58.503Z,7.78
2022-10-18T21:44:26.883Z,7.74
2022-10-18T21:46:55.191Z,7.81
2022-10-18T21:49:25.108Z,7.88
2022-10-18T21:51:54.693Z,7.83
2022-10-18T21:54:23.309Z,7.74
2022-10-18T21:56:54.248Z,7.73
2022-10-18T21:59:24.339Z,7.73
2022-10-18T22:01:53.151Z,7.77
2022-10-18T22:04:23.414Z,7.78
2022-10-18T22:06:52.374Z,7.75
2022-10-18T22:09:21.972Z,7.75
2022-10-18T22:11:52.982Z,7.71
2022-10-18T22:14:22.233Z,7.62
2022-10-18T22:16:51.175Z,7.53
2022-10-18T22:19:19.113Z,7.57
2022-10-18T22:21:47.305Z,7.50
2022-10-18T22:24:15.569Z,7.49
2022-10-18T22:26:44.866Z,7.47
2022-10-18T22:29:16.231Z,7.43
2022-10-18T22:31:50.171Z,7.38
2022-10-18T22:34:23.329Z,7.33
2022-10-18T22:36:51.888Z,7.28
2022-10-18T22:39:20.108Z,7.19
2022-10-18T22:41:51.988Z,7.14
2022-10-18T22:44:19.761Z,7.07
2022-10-18T22:46:47.477Z,7.05
2022-10-18T22:49:15.424Z,7.00
2022-10-18T22:51:43.265Z,6.95
2022-10-18T22:54:11.371Z,6.98
2022-10-18T22:56:39.293Z,6.95
2022-10-18T22:59:07.030Z,6.95
2022-10-18T23:01:35.389Z,6.85
2022-10-18T23:04:04.047Z,6.85
2022-10-18T23:06:34.710Z,6.80
2022-10-18T23:09:06.269Z,6.77
2022-10-18T23:11:35.239Z,6.83
2022-10-18T23:14:04.453Z,6.80
2022-10-18T23:16:32.830Z,6.77
2022-10-18T23:19:00.764Z,6.72
2022-10-18T23:21:29.158Z,6.64
2022-10-18T23:23:57.455Z,6.62
2022-10-18T23:26:27.574Z,6.56
2022-10-18T23:28:56.225Z,6.49
2022-10-18T23:31:29.956Z,6.47
2022-10-18T23:34:01.415Z,6.53
2022-10-18T23:36:29.615Z,6.54
2022-10-18T23:38:57.858Z,6.46
2022-10-18T23:41:25.944Z,6.42
2022-10-18T23:43:53.969Z,6.40
2022-10-18T23:46:22.420Z,6.38
2022-10-18T23:48:50.504Z,6.36
2022-10-18T23:51:18.625Z,6.35
2022-10-18T23:53:46.568Z,6.29
2022-10-18T23:56:16.376Z,6.32
2022-10-18T23:58:45.083Z,6.26
